sensor_id;sensor_type;location;lat;lon;timestamp;temperature;humidity
47813;DHT22;34221;45.296;9.516;2023-03-03T00:00:07;7.70;92.10
47813;DHT22;34221;45.296;9.516;2023-03-03T00:00:29;7.70;92.30
47813;DHT22;34221;45.296;9.516;2023-03-03T00:00:44;7.70;92.40
47813;DHT22;34221;45.296;9.516;2023-03-03T00:00:59;7.70;92.40
47813;DHT22;34221;45.296;9.516;2023-03-03T00:01:14;7.70;92.50
47813;DHT22;34221;45.296;9.516;2023-03-03T00:01:29;7.70;92.80
47813;DHT22;34221;45.296;9.516;2023-03-03T00:01:46;7.70;92.50
47813;DHT22;34221;45.296;9.516;2023-03-03T00:02:01;7.60;92.50
47813;DHT22;34221;45.296;9.516;2023-03-03T00:02:16;7.60;92.60
47813;DHT22;34221;45.296;9.516;2023-03-03T00:02:30;7.70;92.70
47813;DHT22;34221;45.296;9.516;2023-03-03T00:02:45;7.70;92.70
47813;DHT22;34221;45.296;9.516;2023-03-03T00:03:04;7.70;92.60
47813;DHT22;34221;45.296;9.516;2023-03-03T00:03:22;7.60;92.50
47813;DHT22;34221;45.296;9.516;2023-03-03T00:03:38;7.70;92.40
47813;DHT22;34221;45.296;9.516;2023-03-03T00:03:53;7.70;92.40
47813;DHT22;34221;45.296;9.516;2023-03-03T00:04:08;7.70;92.40
47813;DHT22;34221;45.296;9.516;2023-03-03T00:04:23;7.70;92.40
47813;DHT22;34221;45.296;9.516;2023-03-03T00:04:38;7.70;92.40
47813;DHT22;34221;45.296;9.516;2023-03-03T00:04:54;7.80;92.40
47813;DHT22;34221;45.296;9.516;2023-03-03T00:05:09;7.80;92.30
47813;DHT22;34221;45.296;9.516;2023-03-03T00:05:24;7.70;92.30
47813;DHT22;34221;45.296;9.516;2023-03-03T00:05:39;7.70;92.40
47813;DHT22;34221;45.296;9.516;2023-03-03T00:05:54;7.80;92.40
47813;DHT22;34221;45.296;9.516;2023-03-03T00:06:10;7.70;92.40
47813;DHT22;34221;45.296;9.516;2023-03-03T00:06:26;7.70;92.50
47813;DHT22;34221;45.296;9.516;2023-03-03T00:06:44;7.70;92.60
47813;DHT22;34221;45.296;9.516;2023-03-03T00:06:59;7.80;92.70
47813;DHT22;34221;45.296;9.516;2023-03-03T00:07:14;7.80;92.70
47813;DHT22;34221;45.296;9.516;2023-03-03T00:07:36;7.80;92.70
47813;DHT22;34221;45.296;9.516;2023-03-03T00:07:50;7.80;93.20
47813;DHT22;34221;45.296;9.516;2023-03-03T00:08:05;7.80;93.20
47813;DHT22;34221;45.296;9.516;2023-03-03T00:08:21;7.80;93.50
47813;DHT22;34221;45.296;9.516;2023-03-03T00:08:37;7.90;93.70
47813;DHT22;34221;45.296;9.516;2023-03-03T00:08:52;7.90;93.70
47813;DHT22;34221;45.296;9.516;2023-03-03T00:09:07;7.90;93.70
47813;DHT22;34221;45.296;9.516;2023-03-03T00:09:22;7.90;94.00
47813;DHT22;34221;45.296;9.516;2023-03-03T00:09:37;7.90;94.00
47813;DHT22;34221;45.296;9.516;2023-03-03T00:09:52;7.90;94.00
47813;DHT22;34221;45.296;9.516;2023-03-03T00:10:07;8.00;94.10
47813;DHT22;34221;45.296;9.516;2023-03-03T00:10:22;8.00;94.00
47813;DHT22;34221;45.296;9.516;2023-03-03T00:10:37;8.00;94.10
47813;DHT22;34221;45.296;9.516;2023-03-03T00:10:52;8.00;94.20
47813;DHT22;34221;45.296;9.516;2023-03-03T00:11:09;8.00;94.20
47813;DHT22;34221;45.296;9.516;2023-03-03T00:11:24;8.00;94.00
47813;DHT22;34221;45.296;9.516;2023-03-03T00:11:39;8.10;93.70
47813;DHT22;34221;45.296;9.516;2023-03-03T00:11:56;8.10;93.40
47813;DHT22;34221;45.296;9.516;2023-03-03T00:12:29;8.10;93.00
47813;DHT22;34221;45.296;9.516;2023-03-03T00:12:47;8.00;92.60
47813;DHT22;34221;45.296;9.516;2023-03-03T00:13:19;8.00;92.50
47813;DHT22;34221;45.296;9.516;2023-03-03T00:13:55;8.00;92.70
47813;DHT22;34221;45.296;9.516;2023-03-03T00:14:29;8.00;93.20
47813;DHT22;34221;45.296;9.516;2023-03-03T00:14:45;8.00;93.40
47813;DHT22;34221;45.296;9.516;2023-03-03T00:15:00;8.00;92.70
47813;DHT22;34221;45.296;9.516;2023-03-03T00:15:21;7.90;92.50
47813;DHT22;34221;45.296;9.516;2023-03-03T00:15:37;7.80;92.50
47813;DHT22;34221;45.296;9.516;2023-03-03T00:15:53;7.80;92.70
47813;DHT22;34221;45.296;9.516;2023-03-03T00:16:37;7.80;92.70
47813;DHT22;34221;45.296;9.516;2023-03-03T00:16:53;7.80;92.80
47813;DHT22;34221;45.296;9.516;2023-03-03T00:17:37;7.80;93.00
47813;DHT22;34221;45.296;9.516;2023-03-03T00:17:52;7.80;93.00
47813;DHT22;34221;45.296;9.516;2023-03-03T00:18:29;7.80;93.20
47813;DHT22;34221;45.296;9.516;2023-03-03T00:18:47;7.90;93.80
47813;DHT22;34221;45.296;9.516;2023-03-03T00:19:02;7.90;93.60
47813;DHT22;34221;45.296;9.516;2023-03-03T00:19:18;7.90;93.50
47813;DHT22;34221;45.296;9.516;2023-03-03T00:19:37;7.90;93.30
47813;DHT22;34221;45.296;9.516;2023-03-03T00:19:55;7.90;93.20
47813;DHT22;34221;45.296;9.516;2023-03-03T00:20:37;7.90;93.00
47813;DHT22;34221;45.296;9.516;2023-03-03T00:20:56;7.90;92.80
47813;DHT22;34221;45.296;9.516;2023-03-03T00:21:45;7.90;92.50
47813;DHT22;34221;45.296;9.516;2023-03-03T00:22:01;7.90;92.50
47813;DHT22;34221;45.296;9.516;2023-03-03T00:22:30;7.80;92.50
47813;DHT22;34221;45.296;9.516;2023-03-03T00:22:49;7.80;92.60
47813;DHT22;34221;45.296;9.516;2023-03-03T00:23:19;7.90;92.60
47813;DHT22;34221;45.296;9.516;2023-03-03T00:23:40;7.90;92.50
47813;DHT22;34221;45.296;9.516;2023-03-03T00:24:29;7.90;92.70
47813;DHT22;34221;45.296;9.516;2023-03-03T00:24:50;7.90;92.30
47813;DHT22;34221;45.296;9.516;2023-03-03T00:25:28;7.80;92.40
47813;DHT22;34221;45.296;9.516;2023-03-03T00:25:45;7.90;92.60
47813;DHT22;34221;45.296;9.516;2023-03-03T00:26:00;7.90;92.60
47813;DHT22;34221;45.296;9.516;2023-03-03T00:26:55;7.90;92.50
47813;DHT22;34221;45.296;9.516;2023-03-03T00:27:30;7.90;92.50
47813;DHT22;34221;45.296;9.516;2023-03-03T00:27:49;7.90;92.50
47813;DHT22;34221;45.296;9.516;2023-03-03T00:28:17;7.90;92.60
47813;DHT22;34221;45.296;9.516;2023-03-03T00:28:44;7.90;92.60
47813;DHT22;34221;45.296;9.516;2023-03-03T00:29:01;7.80;92.50
47813;DHT22;34221;45.296;9.516;2023-03-03T00:29:40;7.80;92.50
47813;DHT22;34221;45.296;9.516;2023-03-03T00:30:00;7.80;93.00
47813;DHT22;34221;45.296;9.516;2023-03-03T00:30:25;7.80;92.80
47813;DHT22;34221;45.296;9.516;2023-03-03T00:30:41;7.80;92.90
47813;DHT22;34221;45.296;9.516;2023-03-03T00:31:00;7.80;92.90
47813;DHT22;34221;45.296;9.516;2023-03-03T00:31:25;7.80;92.90
47813;DHT22;34221;45.296;9.516;2023-03-03T00:31:44;7.80;93.10
47813;DHT22;34221;45.296;9.516;2023-03-03T00:32:26;7.70;92.80
47813;DHT22;34221;45.296;9.516;2023-03-03T00:32:45;7.70;93.00
47813;DHT22;34221;45.296;9.516;2023-03-03T00:33:46;7.70;93.10
47813;DHT22;34221;45.296;9.516;2023-03-03T00:34:33;7.80;93.30
47813;DHT22;34221;45.296;9.516;2023-03-03T00:34:51;7.80;93.10
47813;DHT22;34221;45.296;9.516;2023-03-03T00:35:26;7.80;93.00
47813;DHT22;34221;45.296;9.516;2023-03-03T00:35:43;7.80;93.00
47813;DHT22;34221;45.296;9.516;2023-03-03T00:36:36;7.80;93.00
47813;DHT22;34221;45.296;9.516;2023-03-03T00:36:53;7.80;93.00
47813;DHT22;34221;45.296;9.516;2023-03-03T00:37:45;7.90;93.00
47813;DHT22;34221;45.296;9.516;2023-03-03T00:38:09;7.90;92.90
47813;DHT22;34221;45.296;9.516;2023-03-03T00:38:26;7.90;92.90
47813;DHT22;34221;45.296;9.516;2023-03-03T00:38:42;7.90;92.80
47813;DHT22;34221;45.296;9.516;2023-03-03T00:39:10;7.90;92.80
47813;DHT22;34221;45.296;9.516;2023-03-03T00:39:36;7.90;92.80
47813;DHT22;34221;45.296;9.516;2023-03-03T00:39:52;7.90;92.70
47813;DHT22;34221;45.296;9.516;2023-03-03T00:40:22;7.90;92.70
47813;DHT22;34221;45.296;9.516;2023-03-03T00:40:39;7.90;92.70
47813;DHT22;34221;45.296;9.516;2023-03-03T00:40:55;8.00;92.70
47813;DHT22;34221;45.296;9.516;2023-03-03T00:41:22;8.00;92.90
47813;DHT22;34221;45.296;9.516;2023-03-03T00:41:39;8.00;93.40
47813;DHT22;34221;45.296;9.516;2023-03-03T00:41:54;8.00;93.10
47813;DHT22;34221;45.296;9.516;2023-03-03T00:42:14;8.00;92.90
47813;DHT22;34221;45.296;9.516;2023-03-03T00:42:32;8.00;92.70
47813;DHT22;34221;45.296;9.516;2023-03-03T00:42:54;8.00;92.60
47813;DHT22;34221;45.296;9.516;2023-03-03T00:43:24;8.00;92.50
47813;DHT22;34221;45.296;9.516;2023-03-03T00:43:42;8.00;92.40
47813;DHT22;34221;45.296;9.516;2023-03-03T00:43:57;8.00;92.40
47813;DHT22;34221;45.296;9.516;2023-03-03T00:44:59;8.00;92.20
47813;DHT22;34221;45.296;9.516;2023-03-03T00:45:47;8.00;92.20
47813;DHT22;34221;45.296;9.516;2023-03-03T00:46:07;8.00;92.30
47813;DHT22;34221;45.296;9.516;2023-03-03T00:46:23;8.00;92.30
47813;DHT22;34221;45.296;9.516;2023-03-03T00:46:38;8.00;92.30
47813;DHT22;34221;45.296;9.516;2023-03-03T00:46:53;8.00;92.30
47813;DHT22;34221;45.296;9.516;2023-03-03T00:47:30;8.00;92.30
47813;DHT22;34221;45.296;9.516;2023-03-03T00:47:47;8.00;92.30
47813;DHT22;34221;45.296;9.516;2023-03-03T00:48:24;8.00;92.40
47813;DHT22;34221;45.296;9.516;2023-03-03T00:48:45;8.00;92.40
47813;DHT22;34221;45.296;9.516;2023-03-03T00:49:01;8.00;92.30
47813;DHT22;34221;45.296;9.516;2023-03-03T00:49:24;8.00;92.30
47813;DHT22;34221;45.296;9.516;2023-03-03T00:49:40;8.00;92.30
47813;DHT22;34221;45.296;9.516;2023-03-03T00:50:37;8.00;92.30
47813;DHT22;34221;45.296;9.516;2023-03-03T00:50:54;8.10;92.20
47813;DHT22;34221;45.296;9.516;2023-03-03T00:51:27;8.10;92.10
47813;DHT22;34221;45.296;9.516;2023-03-03T00:51:43;8.10;92.10
47813;DHT22;34221;45.296;9.516;2023-03-03T00:51:58;8.00;92.00
47813;DHT22;34221;45.296;9.516;2023-03-03T00:52:16;8.00;92.00
47813;DHT22;34221;45.296;9.516;2023-03-03T00:52:40;8.00;92.10
47813;DHT22;34221;45.296;9.516;2023-03-03T00:53:06;8.10;92.20
47813;DHT22;34221;45.296;9.516;2023-03-03T00:53:27;8.00;92.20
47813;DHT22;34221;45.296;9.516;2023-03-03T00:53:43;8.00;92.20
47813;DHT22;34221;45.296;9.516;2023-03-03T00:53:59;8.00;92.30
47813;DHT22;34221;45.296;9.516;2023-03-03T00:54:13;8.00;92.30
47813;DHT22;34221;45.296;9.516;2023-03-03T00:54:28;8.00;92.30
47813;DHT22;34221;45.296;9.516;2023-03-03T00:54:43;8.00;92.20
47813;DHT22;34221;45.296;9.516;2023-03-03T00:54:58;8.00;92.10
47813;DHT22;34221;45.296;9.516;2023-03-03T00:55:13;8.10;92.00
47813;DHT22;34221;45.296;9.516;2023-03-03T00:55:29;8.10;92.00
47813;DHT22;34221;45.296;9.516;2023-03-03T00:55:46;8.00;92.00
47813;DHT22;34221;45.296;9.516;2023-03-03T00:56:02;8.00;92.00
47813;DHT22;34221;45.296;9.516;2023-03-03T00:56:18;8.00;92.00
47813;DHT22;34221;45.296;9.516;2023-03-03T00:56:32;8.00;92.10
47813;DHT22;34221;45.296;9.516;2023-03-03T00:56:47;8.00;92.10
47813;DHT22;34221;45.296;9.516;2023-03-03T00:57:02;8.00;92.20
47813;DHT22;34221;45.296;9.516;2023-03-03T00:57:17;8.10;92.20
47813;DHT22;34221;45.296;9.516;2023-03-03T00:57:33;8.10;92.20
47813;DHT22;34221;45.296;9.516;2023-03-03T00:57:49;8.10;92.20
47813;DHT22;34221;45.296;9.516;2023-03-03T00:58:06;8.10;92.20
47813;DHT22;34221;45.296;9.516;2023-03-03T00:58:27;8.10;92.20
47813;DHT22;34221;45.296;9.516;2023-03-03T00:58:44;8.10;92.20
47813;DHT22;34221;45.296;9.516;2023-03-03T00:59:01;8.10;92.20
47813;DHT22;34221;45.296;9.516;2023-03-03T00:59:17;8.10;92.00
47813;DHT22;34221;45.296;9.516;2023-03-03T00:59:32;8.10;92.10
47813;DHT22;34221;45.296;9.516;2023-03-03T00:59:47;8.10;92.20
47813;DHT22;34221;45.296;9.516;2023-03-03T01:00:03;8.10;92.20
47813;DHT22;34221;45.296;9.516;2023-03-03T01:00:20;8.10;92.20
47813;DHT22;34221;45.296;9.516;2023-03-03T01:00:36;8.00;92.20
47813;DHT22;34221;45.296;9.516;2023-03-03T01:00:53;8.00;92.30
47813;DHT22;34221;45.296;9.516;2023-03-03T01:01:16;8.00;92.40
47813;DHT22;34221;45.296;9.516;2023-03-03T01:01:36;8.00;92.40
47813;DHT22;34221;45.296;9.516;2023-03-03T01:01:50;8.00;92.30
47813;DHT22;34221;45.296;9.516;2023-03-03T01:02:06;8.00;92.30
47813;DHT22;34221;45.296;9.516;2023-03-03T01:02:21;8.00;92.30
47813;DHT22;34221;45.296;9.516;2023-03-03T01:02:36;8.00;92.40
47813;DHT22;34221;45.296;9.516;2023-03-03T01:02:51;8.00;92.40
47813;DHT22;34221;45.296;9.516;2023-03-03T01:03:15;8.00;92.40
47813;DHT22;34221;45.296;9.516;2023-03-03T01:03:33;8.00;92.40
47813;DHT22;34221;45.296;9.516;2023-03-03T01:03:48;8.00;92.40
47813;DHT22;34221;45.296;9.516;2023-03-03T01:04:03;8.00;92.40
47813;DHT22;34221;45.296;9.516;2023-03-03T01:04:19;8.00;92.40
47813;DHT22;34221;45.296;9.516;2023-03-03T01:04:34;8.00;92.70
47813;DHT22;34221;45.296;9.516;2023-03-03T01:04:51;7.90;92.40
47813;DHT22;34221;45.296;9.516;2023-03-03T01:05:16;8.00;92.40
47813;DHT22;34221;45.296;9.516;2023-03-03T01:05:32;7.90;92.40
47813;DHT22;34221;45.296;9.516;2023-03-03T01:05:48;7.90;92.40
47813;DHT22;34221;45.296;9.516;2023-03-03T01:06:03;8.00;92.40
47813;DHT22;34221;45.296;9.516;2023-03-03T01:06:19;7.90;92.30
47813;DHT22;34221;45.296;9.516;2023-03-03T01:06:34;7.90;92.20
47813;DHT22;34221;45.296;9.516;2023-03-03T01:06:49;7.90;92.20
47813;DHT22;34221;45.296;9.516;2023-03-03T01:07:04;7.90;92.20
47813;DHT22;34221;45.296;9.516;2023-03-03T01:07:19;7.90;92.30
47813;DHT22;34221;45.296;9.516;2023-03-03T01:07:34;7.90;92.30
47813;DHT22;34221;45.296;9.516;2023-03-03T01:07:49;7.90;92.30
47813;DHT22;34221;45.296;9.516;2023-03-03T01:08:05;7.90;92.30
47813;DHT22;34221;45.296;9.516;2023-03-03T01:08:21;7.90;92.20
47813;DHT22;34221;45.296;9.516;2023-03-03T01:08:36;7.90;92.20
47813;DHT22;34221;45.296;9.516;2023-03-03T01:08:51;7.90;92.20
47813;DHT22;34221;45.296;9.516;2023-03-03T01:09:06;7.90;92.20
47813;DHT22;34221;45.296;9.516;2023-03-03T01:09:22;7.90;92.20
47813;DHT22;34221;45.296;9.516;2023-03-03T01:09:37;7.90;92.10
47813;DHT22;34221;45.296;9.516;2023-03-03T01:09:52;7.90;92.10
47813;DHT22;34221;45.296;9.516;2023-03-03T01:10:09;7.90;92.10
47813;DHT22;34221;45.296;9.516;2023-03-03T01:10:27;7.90;92.10
47813;DHT22;34221;45.296;9.516;2023-03-03T01:10:50;7.90;92.20
47813;DHT22;34221;45.296;9.516;2023-03-03T01:11:12;7.90;92.30
47813;DHT22;34221;45.296;9.516;2023-03-03T01:11:30;7.90;92.30
47813;DHT22;34221;45.296;9.516;2023-03-03T01:11:44;7.90;92.30
47813;DHT22;34221;45.296;9.516;2023-03-03T01:12:00;7.90;92.50
47813;DHT22;34221;45.296;9.516;2023-03-03T01:12:15;7.90;92.70
47813;DHT22;34221;45.296;9.516;2023-03-03T01:12:30;7.90;92.90
47813;DHT22;34221;45.296;9.516;2023-03-03T01:12:46;7.90;92.80
47813;DHT22;34221;45.296;9.516;2023-03-03T01:13:02;7.90;92.70
47813;DHT22;34221;45.296;9.516;2023-03-03T01:13:20;7.90;92.70
47813;DHT22;34221;45.296;9.516;2023-03-03T01:13:39;7.90;92.60
47813;DHT22;34221;45.296;9.516;2023-03-03T01:13:56;7.90;92.50
47813;DHT22;34221;45.296;9.516;2023-03-03T01:14:11;7.90;92.50
47813;DHT22;34221;45.296;9.516;2023-03-03T01:14:26;7.90;92.60
47813;DHT22;34221;45.296;9.516;2023-03-03T01:14:41;7.90;92.60
47813;DHT22;34221;45.296;9.516;2023-03-03T01:14:56;7.90;92.60
47813;DHT22;34221;45.296;9.516;2023-03-03T01:15:13;7.90;92.60
47813;DHT22;34221;45.296;9.516;2023-03-03T01:15:29;7.90;92.60
47813;DHT22;34221;45.296;9.516;2023-03-03T01:15:44;7.90;92.60
47813;DHT22;34221;45.296;9.516;2023-03-03T01:16:02;7.90;92.60
47813;DHT22;34221;45.296;9.516;2023-03-03T01:16:18;7.90;92.60
47813;DHT22;34221;45.296;9.516;2023-03-03T01:16:33;7.90;92.60
47813;DHT22;34221;45.296;9.516;2023-03-03T01:16:48;7.90;92.50
47813;DHT22;34221;45.296;9.516;2023-03-03T01:17:06;7.90;92.50
47813;DHT22;34221;45.296;9.516;2023-03-03T01:17:21;7.90;92.60
47813;DHT22;34221;45.296;9.516;2023-03-03T01:17:36;7.90;92.60
47813;DHT22;34221;45.296;9.516;2023-03-03T01:17:54;7.90;92.60
47813;DHT22;34221;45.296;9.516;2023-03-03T01:18:10;7.90;92.60
47813;DHT22;34221;45.296;9.516;2023-03-03T01:18:26;7.90;92.60
47813;DHT22;34221;45.296;9.516;2023-03-03T01:18:41;7.90;92.60
47813;DHT22;34221;45.296;9.516;2023-03-03T01:18:56;7.90;92.60
47813;DHT22;34221;45.296;9.516;2023-03-03T01:19:11;7.90;92.60
47813;DHT22;34221;45.296;9.516;2023-03-03T01:19:26;7.90;92.60
47813;DHT22;34221;45.296;9.516;2023-03-03T01:19:41;7.90;92.70
47813;DHT22;34221;45.296;9.516;2023-03-03T01:19:56;7.90;92.70
47813;DHT22;34221;45.296;9.516;2023-03-03T01:20:13;7.90;92.70
47813;DHT22;34221;45.296;9.516;2023-03-03T01:20:29;7.90;92.70
47813;DHT22;34221;45.296;9.516;2023-03-03T01:20:44;7.90;92.70
47813;DHT22;34221;45.296;9.516;2023-03-03T01:20:59;7.90;93.00
47813;DHT22;34221;45.296;9.516;2023-03-03T01:21:15;7.90;93.00
47813;DHT22;34221;45.296;9.516;2023-03-03T01:21:30;7.90;93.00
47813;DHT22;34221;45.296;9.516;2023-03-03T01:21:45;8.00;92.90
47813;DHT22;34221;45.296;9.516;2023-03-03T01:22:00;8.00;92.90
47813;DHT22;34221;45.296;9.516;2023-03-03T01:22:15;8.00;92.80
47813;DHT22;34221;45.296;9.516;2023-03-03T01:22:30;8.00;92.80
47813;DHT22;34221;45.296;9.516;2023-03-03T01:22:45;8.00;92.70
47813;DHT22;34221;45.296;9.516;2023-03-03T01:23:00;8.00;92.70
47813;DHT22;34221;45.296;9.516;2023-03-03T01:23:16;8.00;92.70
47813;DHT22;34221;45.296;9.516;2023-03-03T01:23:32;8.00;92.70
47813;DHT22;34221;45.296;9.516;2023-03-03T01:23:47;8.10;92.60
47813;DHT22;34221;45.296;9.516;2023-03-03T01:24:02;8.00;92.60
47813;DHT22;34221;45.296;9.516;2023-03-03T01:24:17;8.00;92.60
47813;DHT22;34221;45.296;9.516;2023-03-03T01:24:32;8.00;92.70
47813;DHT22;34221;45.296;9.516;2023-03-03T01:24:47;8.10;92.60
47813;DHT22;34221;45.296;9.516;2023-03-03T01:25:02;8.00;92.50
47813;DHT22;34221;45.296;9.516;2023-03-03T01:25:17;8.10;92.50
47813;DHT22;34221;45.296;9.516;2023-03-03T01:25:32;8.10;92.60
47813;DHT22;34221;45.296;9.516;2023-03-03T01:25:47;8.10;92.60
47813;DHT22;34221;45.296;9.516;2023-03-03T01:26:03;8.10;92.60
47813;DHT22;34221;45.296;9.516;2023-03-03T01:26:19;8.10;92.50
47813;DHT22;34221;45.296;9.516;2023-03-03T01:26:33;8.10;92.50
47813;DHT22;34221;45.296;9.516;2023-03-03T01:26:48;8.10;92.50
47813;DHT22;34221;45.296;9.516;2023-03-03T01:27:03;8.10;92.40
47813;DHT22;34221;45.296;9.516;2023-03-03T01:27:18;8.10;92.40
47813;DHT22;34221;45.296;9.516;2023-03-03T01:27:34;8.10;92.40
47813;DHT22;34221;45.296;9.516;2023-03-03T01:27:49;8.10;92.40
47813;DHT22;34221;45.296;9.516;2023-03-03T01:28:07;8.10;92.40
47813;DHT22;34221;45.296;9.516;2023-03-03T01:28:22;8.10;92.30
47813;DHT22;34221;45.296;9.516;2023-03-03T01:28:37;8.10;92.30
47813;DHT22;34221;45.296;9.516;2023-03-03T01:28:52;8.10;92.30
47813;DHT22;34221;45.296;9.516;2023-03-03T01:29:08;8.00;92.20
47813;DHT22;34221;45.296;9.516;2023-03-03T01:29:23;8.00;92.20
47813;DHT22;34221;45.296;9.516;2023-03-03T01:29:38;8.00;92.30
47813;DHT22;34221;45.296;9.516;2023-03-03T01:29:53;8.00;92.30
47813;DHT22;34221;45.296;9.516;2023-03-03T01:30:10;8.00;92.30
47813;DHT22;34221;45.296;9.516;2023-03-03T01:30:25;8.00;92.40
47813;DHT22;34221;45.296;9.516;2023-03-03T01:30:41;8.00;92.30
47813;DHT22;34221;45.296;9.516;2023-03-03T01:31:00;7.90;92.30
47813;DHT22;34221;45.296;9.516;2023-03-03T01:31:16;7.90;92.40
47813;DHT22;34221;45.296;9.516;2023-03-03T01:31:31;7.90;92.50
47813;DHT22;34221;45.296;9.516;2023-03-03T01:31:46;7.90;92.50
47813;DHT22;34221;45.296;9.516;2023-03-03T01:32:01;7.90;92.50
47813;DHT22;34221;45.296;9.516;2023-03-03T01:32:16;7.80;92.50
47813;DHT22;34221;45.296;9.516;2023-03-03T01:32:31;7.80;92.50
47813;DHT22;34221;45.296;9.516;2023-03-03T01:32:46;7.80;92.50
47813;DHT22;34221;45.296;9.516;2023-03-03T01:33:02;7.80;92.60
47813;DHT22;34221;45.296;9.516;2023-03-03T01:33:17;7.70;92.60
47813;DHT22;34221;45.296;9.516;2023-03-03T01:33:34;7.70;92.60
47813;DHT22;34221;45.296;9.516;2023-03-03T01:33:50;7.60;92.60
47813;DHT22;34221;45.296;9.516;2023-03-03T01:34:04;7.70;92.70
47813;DHT22;34221;45.296;9.516;2023-03-03T01:34:20;7.60;92.70
47813;DHT22;34221;45.296;9.516;2023-03-03T01:34:35;7.50;92.70
47813;DHT22;34221;45.296;9.516;2023-03-03T01:34:50;7.50;92.80
47813;DHT22;34221;45.296;9.516;2023-03-03T01:35:06;7.40;92.90
47813;DHT22;34221;45.296;9.516;2023-03-03T01:35:22;7.30;93.10
47813;DHT22;34221;45.296;9.516;2023-03-03T01:35:43;7.30;93.10
47813;DHT22;34221;45.296;9.516;2023-03-03T01:35:59;7.20;93.20
47813;DHT22;34221;45.296;9.516;2023-03-03T01:36:14;7.20;93.30
47813;DHT22;34221;45.296;9.516;2023-03-03T01:36:29;7.10;93.40
47813;DHT22;34221;45.296;9.516;2023-03-03T01:36:44;7.10;93.60
47813;DHT22;34221;45.296;9.516;2023-03-03T01:36:59;7.10;93.60
47813;DHT22;34221;45.296;9.516;2023-03-03T01:37:14;7.00;93.80
47813;DHT22;34221;45.296;9.516;2023-03-03T01:37:29;6.90;94.10
47813;DHT22;34221;45.296;9.516;2023-03-03T01:37:44;6.90;94.50
47813;DHT22;34221;45.296;9.516;2023-03-03T01:38:01;6.90;94.60
47813;DHT22;34221;45.296;9.516;2023-03-03T01:38:16;6.90;94.70
47813;DHT22;34221;45.296;9.516;2023-03-03T01:38:34;6.90;94.80
47813;DHT22;34221;45.296;9.516;2023-03-03T01:38:50;7.00;94.80
47813;DHT22;34221;45.296;9.516;2023-03-03T01:39:06;7.00;94.80
47813;DHT22;34221;45.296;9.516;2023-03-03T01:39:20;7.00;94.80
47813;DHT22;34221;45.296;9.516;2023-03-03T01:39:35;7.00;94.80
47813;DHT22;34221;45.296;9.516;2023-03-03T01:39:51;7.10;94.80
47813;DHT22;34221;45.296;9.516;2023-03-03T01:40:21;7.10;94.90
47813;DHT22;34221;45.296;9.516;2023-03-03T01:40:38;7.10;95.30
47813;DHT22;34221;45.296;9.516;2023-03-03T01:40:56;7.20;95.40
47813;DHT22;34221;45.296;9.516;2023-03-03T01:41:11;7.10;94.80
47813;DHT22;34221;45.296;9.516;2023-03-03T01:41:27;7.00;94.70
47813;DHT22;34221;45.296;9.516;2023-03-03T01:41:43;7.00;94.80
47813;DHT22;34221;45.296;9.516;2023-03-03T01:41:58;6.90;95.10
47813;DHT22;34221;45.296;9.516;2023-03-03T01:42:13;6.90;95.00
47813;DHT22;34221;45.296;9.516;2023-03-03T01:42:29;6.80;95.00
47813;DHT22;34221;45.296;9.516;2023-03-03T01:42:45;6.80;95.10
47813;DHT22;34221;45.296;9.516;2023-03-03T01:43:00;6.70;95.20
47813;DHT22;34221;45.296;9.516;2023-03-03T01:43:15;6.70;95.30
47813;DHT22;34221;45.296;9.516;2023-03-03T01:43:32;6.70;95.50
47813;DHT22;34221;45.296;9.516;2023-03-03T01:43:49;6.70;95.50
47813;DHT22;34221;45.296;9.516;2023-03-03T01:44:04;6.60;95.60
47813;DHT22;34221;45.296;9.516;2023-03-03T01:44:19;6.60;95.60
47813;DHT22;34221;45.296;9.516;2023-03-03T01:44:34;6.60;95.70
47813;DHT22;34221;45.296;9.516;2023-03-03T01:45:11;6.60;95.70
47813;DHT22;34221;45.296;9.516;2023-03-03T01:46:33;6.40;96.10
47813;DHT22;34221;45.296;9.516;2023-03-03T01:47:37;6.30;96.60
47813;DHT22;34221;45.296;9.516;2023-03-03T01:47:52;6.30;96.90
47813;DHT22;34221;45.296;9.516;2023-03-03T01:48:24;6.40;97.20
47813;DHT22;34221;45.296;9.516;2023-03-03T01:48:54;6.40;97.30
47813;DHT22;34221;45.296;9.516;2023-03-03T01:49:25;6.50;97.20
47813;DHT22;34221;45.296;9.516;2023-03-03T01:49:48;6.50;97.00
47813;DHT22;34221;45.296;9.516;2023-03-03T01:50:13;6.50;97.00
47813;DHT22;34221;45.296;9.516;2023-03-03T01:51:46;6.50;96.90
47813;DHT22;34221;45.296;9.516;2023-03-03T01:52:11;6.60;96.90
47813;DHT22;34221;45.296;9.516;2023-03-03T01:52:35;6.50;96.80
47813;DHT22;34221;45.296;9.516;2023-03-03T01:52:52;6.60;96.80
47813;DHT22;34221;45.296;9.516;2023-03-03T01:53:21;6.60;96.80
47813;DHT22;34221;45.296;9.516;2023-03-03T01:53:45;6.60;96.70
47813;DHT22;34221;45.296;9.516;2023-03-03T01:54:08;6.60;96.60
47813;DHT22;34221;45.296;9.516;2023-03-03T01:54:32;6.60;96.60
47813;DHT22;34221;45.296;9.516;2023-03-03T01:54:56;6.70;96.60
47813;DHT22;34221;45.296;9.516;2023-03-03T01:55:22;6.70;96.70
47813;DHT22;34221;45.296;9.516;2023-03-03T01:55:50;6.70;97.00
47813;DHT22;34221;45.296;9.516;2023-03-03T01:56:08;6.60;96.70
47813;DHT22;34221;45.296;9.516;2023-03-03T01:56:24;6.70;96.80
47813;DHT22;34221;45.296;9.516;2023-03-03T01:56:40;6.70;97.00
47813;DHT22;34221;45.296;9.516;2023-03-03T01:57:01;6.70;96.70
47813;DHT22;34221;45.296;9.516;2023-03-03T01:57:25;6.70;96.70
47813;DHT22;34221;45.296;9.516;2023-03-03T01:57:47;6.70;96.70
47813;DHT22;34221;45.296;9.516;2023-03-03T01:58:08;6.80;96.70
47813;DHT22;34221;45.296;9.516;2023-03-03T01:58:29;6.70;96.50
47813;DHT22;34221;45.296;9.516;2023-03-03T01:59:47;6.80;96.30
47813;DHT22;34221;45.296;9.516;2023-03-03T02:00:04;6.80;96.10
47813;DHT22;34221;45.296;9.516;2023-03-03T02:00:28;6.80;96.10
47813;DHT22;34221;45.296;9.516;2023-03-03T02:00:47;6.80;96.10
47813;DHT22;34221;45.296;9.516;2023-03-03T02:01:09;6.80;96.00
47813;DHT22;34221;45.296;9.516;2023-03-03T02:01:28;6.90;96.00
47813;DHT22;34221;45.296;9.516;2023-03-03T02:01:46;6.90;95.90
47813;DHT22;34221;45.296;9.516;2023-03-03T02:02:03;6.90;95.80
47813;DHT22;34221;45.296;9.516;2023-03-03T02:02:19;6.90;95.80
47813;DHT22;34221;45.296;9.516;2023-03-03T02:02:35;6.90;95.80
47813;DHT22;34221;45.296;9.516;2023-03-03T02:02:50;6.90;95.80
47813;DHT22;34221;45.296;9.516;2023-03-03T02:03:06;6.90;95.80
47813;DHT22;34221;45.296;9.516;2023-03-03T02:03:22;6.90;95.70
47813;DHT22;34221;45.296;9.516;2023-03-03T02:03:38;6.90;95.70
47813;DHT22;34221;45.296;9.516;2023-03-03T02:03:53;6.80;95.70
47813;DHT22;34221;45.296;9.516;2023-03-03T02:04:08;6.80;95.60
47813;DHT22;34221;45.296;9.516;2023-03-03T02:04:24;6.80;95.70
47813;DHT22;34221;45.296;9.516;2023-03-03T02:04:40;6.80;95.70
47813;DHT22;34221;45.296;9.516;2023-03-03T02:04:55;6.80;95.60
47813;DHT22;34221;45.296;9.516;2023-03-03T02:05:12;6.80;95.70
47813;DHT22;34221;45.296;9.516;2023-03-03T02:05:28;6.80;95.60
47813;DHT22;34221;45.296;9.516;2023-03-03T02:05:43;6.80;95.60
47813;DHT22;34221;45.296;9.516;2023-03-03T02:06:23;6.80;95.50